createdAt,value
2017-10-25T00:00:44.034Z,3.30
2017-10-25T00:03:11.567Z,3.03
2017-10-25T00:05:39.148Z,3.63
2017-10-25T00:08:06.680Z,3.87
2017-10-25T00:10:34.211Z,3.03
2017-10-25T00:13:02.531Z,2.27
2017-10-25T00:15:30.059Z,2.77
2017-10-25T00:17:58.351Z,2.63
2017-10-25T00:20:25.911Z,2.53
2017-10-25T00:22:53.451Z,2.90
2017-10-25T00:25:21.747Z,2.60
2017-10-25T00:27:49.579Z,2.73
2017-10-25T00:30:17.107Z,2.90
2017-10-25T00:32:44.631Z,5.20
2017-10-25T00:35:12.192Z,4.83
2017-10-25T00:37:39.726Z,3.40
2017-10-25T00:40:07.263Z,3.30
2017-10-25T00:42:34.820Z,3.90
2017-10-25T00:45:02.365Z,3.30
2017-10-25T00:47:30.528Z,2.60
2017-10-25T00:49:58.114Z,3.50
2017-10-25T00:52:25.651Z,4.33
2017-10-25T00:54:53.183Z,3.23
2017-10-25T00:57:20.743Z,3.60
2017-10-25T00:59:48.262Z,3.37
2017-10-25T01:02:16.410Z,3.00
2017-10-25T01:04:43.977Z,2.50
2017-10-25T01:07:11.504Z,5.32
2017-10-25T01:09:39.035Z,3.70
2017-10-25T01:12:07.680Z,3.28
2017-10-25T01:14:35.211Z,3.23
2017-10-25T01:17:02.744Z,3.23
2017-10-25T01:19:30.299Z,3.87
2017-10-25T01:21:57.832Z,2.80
2017-10-25T01:24:25.367Z,3.10
2017-10-25T01:26:52.931Z,3.20
2017-10-25T01:29:20.468Z,2.77
2017-10-25T01:31:48.000Z,2.70
2017-10-25T01:34:16.475Z,2.83
2017-10-25T01:36:44.012Z,3.00
2017-10-25T01:39:11.552Z,2.40
2017-10-25T01:41:39.099Z,3.23
2017-10-25T01:44:06.632Z,3.20
2017-10-25T01:46:34.164Z,2.73
2017-10-25T01:49:01.720Z,2.90
2017-10-25T01:51:29.262Z,4.77
2017-10-25T01:53:56.800Z,3.37
2017-10-25T01:56:24.375Z,4.40
2017-10-25T01:58:52.316Z,3.63
2017-10-25T02:01:19.842Z,3.12
2017-10-25T02:03:47.420Z,4.20
2017-10-25T02:06:16.451Z,3.35
2017-10-25T02:08:43.975Z,3.60
2017-10-25T02:11:11.532Z,6.35
2017-10-25T02:13:39.068Z,16.70
2017-10-25T02:16:06.591Z,3.72
2017-10-25T02:18:34.167Z,2.00
2017-10-25T02:21:01.692Z,2.23
2017-10-25T02:23:29.227Z,1.90
2017-10-25T02:25:57.551Z,2.10
2017-10-25T02:28:25.084Z,2.28
2017-10-25T02:30:53.023Z,1.90
2017-10-25T02:33:20.588Z,3.20
2017-10-25T02:35:48.888Z,2.20
2017-10-25T02:38:16.471Z,1.90
2017-10-25T02:40:44.056Z,2.43
2017-10-25T02:43:11.595Z,2.40
2017-10-25T02:45:39.136Z,2.23
2017-10-25T02:48:06.700Z,2.00
2017-10-25T02:50:34.235Z,3.27
2017-10-25T02:53:01.773Z,3.87
2017-10-25T02:55:30.096Z,2.60
2017-10-25T02:57:57.635Z,2.53
2017-10-25T03:00:25.163Z,2.83
2017-10-25T03:02:52.752Z,3.50
2017-10-25T03:05:20.296Z,4.60
2017-10-25T03:07:48.599Z,2.63
2017-10-25T03:10:16.516Z,2.30
2017-10-25T03:12:44.044Z,2.57
2017-10-25T03:15:11.576Z,3.40
2017-10-25T03:17:39.126Z,2.80
2017-10-25T03:20:07.426Z,2.13
2017-10-25T03:22:35.732Z,2.27
2017-10-25T03:25:03.323Z,1.90
2017-10-25T03:27:30.865Z,2.30
2017-10-25T03:29:58.408Z,2.87
2017-10-25T03:32:26.259Z,2.17
2017-10-25T03:34:53.800Z,2.40
2017-10-25T03:37:21.335Z,2.70
2017-10-25T03:39:49.655Z,2.20
2017-10-25T03:42:17.188Z,2.20
2017-10-25T03:44:44.724Z,2.03
2017-10-25T03:47:12.300Z,2.77
2017-10-25T03:49:40.599Z,3.00
2017-10-25T03:52:08.132Z,4.10
2017-10-25T03:54:36.451Z,3.53
2017-10-25T03:57:03.971Z,4.73
2017-10-25T03:59:32.276Z,5.33
2017-10-25T04:01:59.827Z,6.17
2017-10-25T04:04:27.367Z,11.40
2017-10-25T04:06:55.671Z,2.30
2017-10-25T04:09:23.256Z,1.73
2017-10-25T04:11:50.791Z,2.73
2017-10-25T04:14:18.352Z,1.87
2017-10-25T04:16:45.912Z,2.20
2017-10-25T04:19:15.428Z,3.40
2017-10-25T04:21:42.959Z,2.27
2017-10-25T04:24:10.529Z,1.83
2017-10-25T04:26:38.059Z,3.90
2017-10-25T04:29:05.595Z,4.43
2017-10-25T04:31:33.187Z,2.30
2017-10-25T04:34:00.720Z,3.87
2017-10-25T04:36:28.261Z,2.90
2017-10-25T04:38:55.833Z,2.50
2017-10-25T04:41:23.380Z,2.90
2017-10-25T04:43:50.908Z,2.40
2017-10-25T04:46:18.471Z,4.53
2017-10-25T04:48:46.003Z,4.17
2017-10-25T04:51:14.522Z,3.83
2017-10-25T04:53:42.101Z,3.73
2017-10-25T04:56:09.637Z,8.17
2017-10-25T04:58:37.163Z,4.10
2017-10-25T05:01:05.508Z,11.20
2017-10-25T05:03:33.047Z,12.68
2017-10-25T05:06:00.580Z,4.30
2017-10-25T05:08:28.126Z,4.20
2017-10-25T05:10:58.120Z,2.33
2017-10-25T05:13:25.650Z,2.53
2017-10-25T05:15:53.223Z,4.87
2017-10-25T05:18:20.755Z,2.10
2017-10-25T05:20:48.287Z,4.20
2017-10-25T05:23:16.447Z,2.83
2017-10-25T05:25:44.739Z,7.50
2017-10-25T05:28:13.956Z,2.37
2017-10-25T05:30:41.511Z,5.03
2017-10-25T05:33:09.044Z,4.70
2017-10-25T05:35:36.919Z,2.77
2017-10-25T05:38:04.503Z,2.03
2017-10-25T05:40:32.035Z,3.13
2017-10-25T05:42:59.570Z,11.97
2017-10-25T05:45:27.127Z,4.40
2017-10-25T05:47:54.655Z,5.37
2017-10-25T05:50:22.192Z,7.40
2017-10-25T05:52:49.751Z,5.27
2017-10-25T05:55:17.296Z,2.40
2017-10-25T05:57:45.591Z,2.30
2017-10-25T06:00:15.548Z,3.28
2017-10-25T06:02:43.084Z,5.23
2017-10-25T06:05:10.620Z,3.20
2017-10-25T06:07:38.180Z,3.93
2017-10-25T06:10:05.715Z,2.30
2017-10-25T06:12:33.238Z,2.70
2017-10-25T06:15:00.796Z,5.43
2017-10-25T06:17:28.328Z,8.30
2017-10-25T06:19:55.855Z,6.93
2017-10-25T06:22:23.451Z,5.80
2017-10-25T06:24:50.987Z,5.10
2017-10-25T06:27:18.523Z,2.15
2017-10-25T06:29:46.079Z,5.17
2017-10-25T06:32:15.493Z,3.05
2017-10-25T06:34:43.041Z,2.00
2017-10-25T06:37:10.854Z,5.37
2017-10-25T06:39:38.495Z,5.70
2017-10-25T06:44:34.340Z,3.80
2017-10-25T06:47:01.871Z,5.60
2017-10-25T06:49:29.412Z,5.10
2017-10-25T06:51:56.966Z,6.50
2017-10-25T06:54:24.492Z,7.13
2017-10-25T06:56:52.028Z,6.10
2017-10-25T06:59:20.360Z,6.32
2017-10-25T07:01:47.892Z,2.87
2017-10-25T07:04:16.377Z,3.20
2017-10-25T07:06:43.972Z,6.13
2017-10-25T07:09:11.507Z,5.37
2017-10-25T07:11:39.035Z,3.83
2017-10-25T07:14:06.617Z,3.17
2017-10-25T07:16:34.167Z,12.43
2017-10-25T07:19:01.704Z,8.93
2017-10-25T07:21:29.291Z,9.30
2017-10-25T07:23:56.816Z,7.23
2017-10-25T07:26:24.361Z,12.85
2017-10-25T07:28:51.952Z,4.90
2017-10-25T07:31:19.580Z,6.85
2017-10-25T07:33:47.115Z,11.13
2017-10-25T07:36:16.504Z,10.32
2017-10-25T07:38:44.334Z,15.80
2017-10-25T07:41:13.603Z,6.87
2017-10-25T07:43:41.167Z,3.03
2017-10-25T07:46:08.699Z,8.13
2017-10-25T07:48:36.231Z,3.73
2017-10-25T07:51:03.816Z,5.83
2017-10-25T07:53:31.344Z,4.00
2017-10-25T07:55:59.645Z,4.93
2017-10-25T07:58:27.205Z,2.90
2017-10-25T08:00:54.745Z,3.20
2017-10-25T08:03:22.286Z,6.60
2017-10-25T08:05:50.697Z,4.60
2017-10-25T08:08:18.236Z,12.87
2017-10-25T08:10:45.771Z,7.83
2017-10-25T08:13:24.640Z,4.43
2017-10-25T08:20:27.509Z,11.80
2017-10-25T08:22:55.043Z,2.93
2017-10-25T08:25:22.579Z,6.47
2017-10-25T08:27:50.131Z,4.10
2017-10-25T08:30:17.659Z,11.70
2017-10-25T08:32:45.183Z,3.50
2017-10-25T08:35:12.783Z,4.23
2017-10-25T08:37:41.079Z,5.83
2017-10-25T08:40:09.132Z,5.07
2017-10-25T08:42:36.687Z,3.47
2017-10-25T08:45:04.250Z,2.40
2017-10-25T08:47:31.784Z,5.73
2017-10-25T08:49:59.339Z,5.00
2017-10-25T08:52:26.876Z,5.57
2017-10-25T08:54:54.503Z,3.57
2017-10-25T08:57:22.235Z,3.70
2017-10-25T08:59:49.768Z,7.90
2017-10-25T09:02:17.376Z,9.40
2017-10-25T09:04:45.720Z,6.23
2017-10-25T09:07:24.770Z,3.33
2017-10-25T09:10:51.289Z,10.20
2017-10-25T09:13:18.818Z,3.00
2017-10-25T09:15:46.347Z,5.87
2017-10-25T09:18:15.754Z,8.30
2017-10-25T09:20:44.051Z,9.30
2017-10-25T09:23:11.584Z,7.93
2017-10-25T09:25:39.918Z,6.80
2017-10-25T09:28:07.468Z,5.40
2017-10-25T09:30:35.026Z,4.70
2017-10-25T09:33:02.581Z,5.43
2017-10-25T09:35:30.110Z,3.23
2017-10-25T09:37:58.508Z,4.60
2017-10-25T09:40:26.335Z,1.93
2017-10-25T09:42:53.871Z,5.60
2017-10-25T09:45:21.411Z,2.10
2017-10-25T09:47:49.743Z,3.40
2017-10-25T09:50:17.283Z,1.63
2017-10-25T09:52:44.818Z,3.87
2017-10-25T09:55:12.384Z,9.50
2017-10-25T09:57:39.910Z,6.13
2017-10-25T10:00:07.585Z,2.55
2017-10-25T10:02:35.175Z,2.17
2017-10-25T10:05:02.710Z,2.73
2017-10-25T10:07:30.248Z,2.87
2017-10-25T10:09:57.802Z,2.50
2017-10-25T10:12:25.340Z,2.30
2017-10-25T10:14:52.878Z,8.90
2017-10-25T10:17:20.435Z,3.37
2017-10-25T10:19:47.968Z,4.10
2017-10-25T10:22:16.478Z,2.33
2017-10-25T10:24:44.099Z,10.13
2017-10-25T10:27:11.635Z,10.10
2017-10-25T10:29:39.976Z,10.13
2017-10-25T10:32:07.531Z,4.35
2017-10-25T10:34:35.064Z,6.97
2017-10-25T10:37:03.379Z,5.07
2017-10-25T10:39:30.940Z,7.43
2017-10-25T10:41:58.898Z,2.20
2017-10-25T10:44:26.664Z,3.30
2017-10-25T10:46:54.251Z,10.00
2017-10-25T10:49:21.792Z,2.92
2017-10-25T10:51:49.319Z,3.50
2017-10-25T10:54:16.868Z,2.10
2017-10-25T10:56:44.403Z,2.80
2017-10-25T10:59:14.533Z,5.67
2017-10-25T11:01:42.091Z,4.90
2017-10-25T11:04:10.309Z,6.40
2017-10-25T11:06:37.844Z,3.43
2017-10-25T11:09:05.492Z,2.33
2017-10-25T11:11:33.026Z,11.43
2017-10-25T11:14:00.559Z,3.00
2017-10-25T11:16:28.119Z,5.43
2017-10-25T11:18:55.652Z,4.43
2017-10-25T11:21:23.192Z,4.10
2017-10-25T11:23:50.747Z,1.60
2017-10-25T11:26:18.284Z,6.53
2017-10-25T11:28:45.820Z,4.80
2017-10-25T11:31:24.463Z,2.05
2017-10-25T11:36:11.271Z,1.43
2017-10-25T11:38:38.851Z,2.50
2017-10-25T11:41:06.388Z,3.93
2017-10-25T11:43:33.916Z,6.33
2017-10-25T11:46:01.463Z,3.07
2017-10-25T11:48:28.999Z,23.83
2017-10-25T11:50:56.523Z,7.10
2017-10-25T11:53:24.112Z,1.70
2017-10-25T11:55:51.646Z,4.23
2017-10-25T11:58:19.192Z,4.57
2017-10-25T12:00:46.747Z,3.13
2017-10-25T12:03:16.319Z,2.20
2017-10-25T12:05:43.843Z,3.23
2017-10-25T12:08:11.400Z,2.20
2017-10-25T12:10:39.584Z,1.67
2017-10-25T12:13:07.131Z,1.63
2017-10-25T12:15:34.719Z,1.40
2017-10-25T12:18:02.256Z,3.30
2017-10-25T12:20:29.796Z,7.53
2017-10-25T12:22:57.355Z,4.20
2017-10-25T12:25:24.889Z,4.43
2017-10-25T12:27:52.431Z,3.35
2017-10-25T12:30:20.375Z,3.08
2017-10-25T12:32:47.913Z,5.90
2017-10-25T12:35:16.489Z,5.57
2017-10-25T12:37:44.079Z,2.67
2017-10-25T12:40:11.704Z,1.60
2017-10-25T12:42:39.236Z,4.33
2017-10-25T12:45:06.791Z,5.13
2017-10-25T12:47:34.324Z,1.50
2017-10-25T12:50:02.627Z,1.70
2017-10-25T12:52:30.211Z,1.17
2017-10-25T12:54:57.776Z,1.60
2017-10-25T13:37:20.180Z,2.70
2017-10-25T13:39:47.720Z,1.80
2017-10-25T13:42:16.447Z,3.35
2017-10-25T13:44:44.012Z,1.00
2017-10-25T13:47:12.115Z,1.87
2017-10-25T13:49:39.653Z,2.67
2017-10-25T13:52:07.215Z,1.50
2017-10-25T13:54:34.757Z,2.10
2017-10-25T13:57:02.292Z,1.77
2017-10-25T13:59:30.031Z,3.53
2017-10-25T14:04:36.038Z,6.57
2017-10-25T14:07:03.568Z,2.10
2017-10-25T14:09:31.248Z,4.50
2017-10-25T14:11:58.824Z,2.00
2017-10-25T14:14:26.357Z,2.10
2017-10-25T14:16:58.092Z,2.17
2017-10-25T14:19:26.455Z,1.60
2017-10-25T14:21:54.395Z,5.17
2017-10-25T14:24:21.918Z,1.50
2017-10-25T14:27:01.169Z,1.75
2017-10-25T14:29:28.756Z,3.13
2017-10-25T14:31:56.288Z,3.20
2017-10-25T14:34:23.875Z,9.38
2017-10-25T14:36:51.423Z,10.10
2017-10-25T14:39:19.722Z,11.23
2017-10-25T14:41:47.311Z,11.47
2017-10-25T14:44:16.336Z,4.40
2017-10-25T14:46:43.901Z,2.37
2017-10-25T14:49:11.788Z,1.60
2017-10-25T15:03:04.924Z,2.23
2017-10-25T15:05:32.541Z,4.60
2017-10-25T15:08:00.143Z,2.93
2017-10-25T15:10:27.720Z,4.53
2017-10-25T15:12:55.280Z,5.63
2017-10-25T15:15:24.065Z,2.78
2017-10-25T15:17:51.621Z,8.33
2017-10-25T15:20:19.794Z,3.50
2017-10-25T15:22:47.422Z,13.40
2017-10-25T15:25:19.064Z,4.28
2017-10-25T15:27:46.785Z,2.73
2017-10-25T15:30:27.911Z,10.40
2017-10-25T15:35:39.026Z,6.80
2017-10-25T15:38:06.695Z,3.03
2017-10-25T15:40:34.342Z,4.03
2017-10-25T15:43:01.973Z,5.90
2017-10-25T15:45:30.715Z,8.03
2017-10-25T15:47:58.354Z,19.10
2017-10-25T15:50:26.004Z,12.30
2017-10-25T15:52:53.970Z,14.17
2017-10-25T15:57:54.424Z,11.80
2017-10-25T16:00:22.705Z,13.27
2017-10-25T16:02:50.405Z,10.37
2017-10-25T16:05:22.486Z,22.57
2017-10-25T16:07:50.184Z,5.67
2017-10-25T16:10:17.840Z,10.30
2017-10-25T16:15:43.557Z,7.37
2017-10-25T16:18:11.915Z,18.13
2017-10-25T16:20:39.476Z,7.63
2017-10-25T16:23:07.107Z,10.07
2017-10-25T16:25:34.675Z,11.00
2017-10-25T16:28:02.301Z,18.20
2017-10-25T16:30:29.920Z,9.60
2017-10-25T16:32:57.561Z,9.07
2017-10-25T16:35:25.153Z,9.20
2017-10-25T16:37:53.691Z,13.70
2017-10-25T16:40:21.251Z,9.33
2017-10-25T16:42:48.784Z,18.73
2017-10-25T16:45:17.326Z,13.53
2017-10-25T16:47:44.904Z,12.67
2017-10-25T16:53:16.416Z,15.07
2017-10-25T16:55:43.955Z,13.97
2017-10-25T16:58:12.335Z,13.45
2017-10-25T17:00:40.683Z,18.23
2017-10-25T17:03:08.212Z,18.50
2017-10-25T17:05:35.744Z,22.77
2017-10-25T17:08:03.327Z,28.50
2017-10-25T17:10:30.876Z,326.23
2017-10-25T17:12:58.434Z,439.90
2017-10-25T17:15:26.036Z,171.70
2017-10-25T17:17:53.601Z,94.07
2017-10-25T17:20:22.562Z,149.40
2017-10-25T17:22:50.174Z,114.77
2017-10-25T17:25:17.711Z,75.50
2017-10-25T17:27:45.247Z,53.60
2017-10-25T17:30:13.735Z,61.37
2017-10-25T17:32:41.275Z,60.93
2017-10-25T17:35:08.807Z,79.70
2017-10-25T17:37:37.155Z,44.93
2017-10-25T17:40:04.758Z,33.33
2017-10-25T17:42:32.316Z,24.80
2017-10-25T17:45:00.724Z,18.20
2017-10-25T17:47:28.306Z,25.00
2017-10-25T17:49:55.888Z,24.57
2017-10-25T17:52:23.472Z,15.98
2017-10-25T17:54:51.795Z,22.60
2017-10-25T17:57:20.157Z,22.60
2017-10-25T17:59:47.763Z,18.30
2017-10-25T18:02:17.216Z,15.25
2017-10-25T18:04:45.961Z,18.33
2017-10-25T18:07:14.839Z,13.93
2017-10-25T18:09:42.372Z,12.70
2017-10-25T18:12:09.908Z,19.83
2017-10-25T18:14:37.468Z,15.20
2017-10-25T18:17:05.005Z,17.03
2017-10-25T18:19:33.421Z,12.00
2017-10-25T18:22:00.989Z,25.00
2017-10-25T18:24:28.542Z,29.80
2017-10-25T18:26:56.124Z,26.27
2017-10-25T18:29:23.731Z,28.00
2017-10-25T18:31:52.031Z,29.40
2017-10-25T18:34:19.567Z,30.80
2017-10-25T18:36:47.891Z,28.13
2017-10-25T18:39:16.516Z,23.17
2017-10-25T18:41:44.058Z,25.87
2017-10-25T18:44:11.628Z,13.50
2017-10-25T18:46:39.164Z,14.93
2017-10-25T18:49:06.692Z,14.10
2017-10-25T18:51:34.696Z,15.90
2017-10-25T18:54:02.220Z,9.97
2017-10-25T18:56:29.754Z,7.72
2017-10-25T18:58:58.232Z,12.03
2017-10-25T19:01:26.532Z,9.93
2017-10-25T19:03:54.064Z,9.60
2017-10-25T19:06:21.624Z,11.53
2017-10-25T19:08:49.607Z,14.10
2017-10-25T19:11:17.899Z,13.37
2017-10-25T19:13:45.478Z,11.73
2017-10-25T19:16:14.782Z,13.02
2017-10-25T19:25:12.339Z,13.73
2017-10-25T19:27:39.868Z,11.63
2017-10-25T19:30:07.423Z,8.67
2017-10-25T19:32:35.008Z,8.37
2017-10-25T19:35:02.540Z,10.20
2017-10-25T19:37:30.074Z,8.00
2017-10-25T19:39:57.632Z,10.60
2017-10-25T19:42:25.163Z,11.03
2017-10-25T19:44:52.692Z,18.30
2017-10-25T19:47:20.252Z,11.43
2017-10-25T19:49:47.781Z,13.23
2017-10-25T19:52:17.175Z,10.83
2017-10-25T19:54:44.760Z,13.07
2017-10-25T19:57:12.287Z,17.77
2017-10-25T19:59:39.821Z,15.20
2017-10-25T20:02:08.147Z,12.43
2017-10-25T20:04:35.676Z,8.73
2017-10-25T20:07:03.383Z,12.03
2017-10-25T20:09:30.936Z,9.90
2017-10-25T20:11:58.462Z,8.05
2017-10-25T20:14:25.998Z,14.77
2017-10-25T20:16:53.579Z,11.60
2017-10-25T20:19:21.103Z,12.37
2017-10-25T20:21:48.637Z,10.60
2017-10-25T20:24:17.206Z,9.20
2017-10-25T20:26:44.750Z,10.40
2017-10-25T20:29:12.279Z,9.10
2017-10-25T20:31:39.832Z,11.03
2017-10-25T20:34:07.355Z,12.80
2017-10-25T20:36:34.894Z,10.27
2017-10-25T20:39:02.512Z,13.25
2017-10-25T20:41:30.807Z,7.60
2017-10-25T20:43:58.328Z,8.27
2017-10-25T20:46:25.875Z,9.83
2017-10-25T20:48:53.403Z,10.68
2017-10-25T20:51:20.931Z,8.83
2017-10-25T20:53:48.483Z,8.90
2017-10-25T20:56:16.427Z,9.70
2017-10-25T20:58:43.947Z,8.63
2017-10-25T21:01:11.527Z,9.83
2017-10-25T21:03:39.056Z,8.23
2017-10-25T21:06:07.415Z,7.27
2017-10-25T21:08:35.028Z,7.13
2017-10-25T21:11:03.389Z,8.37
2017-10-25T21:13:30.910Z,6.77
2017-10-25T21:15:58.459Z,7.30
2017-10-25T21:18:25.979Z,7.33
2017-10-25T21:20:53.507Z,6.87
2017-10-25T21:23:21.083Z,10.07
2017-10-25T21:25:48.607Z,12.80
2017-10-25T21:28:17.215Z,7.32
2017-10-25T21:30:44.780Z,6.97
2017-10-25T21:33:12.308Z,9.20
2017-10-25T21:35:39.826Z,6.53
2017-10-25T21:38:07.390Z,7.20
2017-10-25T21:40:34.923Z,6.40
2017-10-25T21:43:02.451Z,6.72
2017-10-25T21:45:30.023Z,6.57
2017-10-25T21:47:58.307Z,6.80
2017-10-25T21:50:25.846Z,6.40
2017-10-25T21:52:53.398Z,10.65
2017-10-25T21:55:20.932Z,10.23
2017-10-25T21:57:48.467Z,7.68
2017-10-25T22:00:16.682Z,8.27
2017-10-25T22:02:44.208Z,10.13
2017-10-25T22:05:11.735Z,7.87
2017-10-25T22:07:45.891Z,9.93
2017-10-25T22:10:14.588Z,8.77
2017-10-25T22:12:42.115Z,10.80
2017-10-25T22:15:09.673Z,12.47
2017-10-25T22:17:37.204Z,17.97
2017-10-25T22:20:05.500Z,9.90
2017-10-25T22:22:33.835Z,11.27
2017-10-25T22:25:01.361Z,14.47
2017-10-25T22:27:28.888Z,8.82
2017-10-25T22:29:57.240Z,9.87
2017-10-25T22:32:24.776Z,10.57
2017-10-25T22:34:52.299Z,10.50
2017-10-25T22:37:19.864Z,11.00
2017-10-25T22:39:47.388Z,8.40
2017-10-25T22:42:16.428Z,8.40
2017-10-25T22:44:43.972Z,9.00
2017-10-25T22:47:11.495Z,9.00
2017-10-25T22:49:39.024Z,15.67
2017-10-25T22:52:06.595Z,9.27
2017-10-25T22:54:34.116Z,8.97
2017-10-25T22:57:01.643Z,8.10
2017-10-25T22:59:29.191Z,9.90
2017-10-25T23:01:56.719Z,7.97
2017-10-25T23:04:24.248Z,8.90
2017-10-25T23:06:51.798Z,7.67
2017-10-25T23:09:20.094Z,7.27
2017-10-25T23:11:47.616Z,8.00
2017-10-25T23:14:16.744Z,10.43
2017-10-25T23:16:44.273Z,8.40
2017-10-25T23:19:11.798Z,9.03
2017-10-25T23:21:39.347Z,7.90
2017-10-25T23:24:06.881Z,7.97
2017-10-25T23:26:34.408Z,7.95
2017-10-25T23:29:01.959Z,8.87
2017-10-25T23:31:29.500Z,9.63
2017-10-25T23:33:57.046Z,7.90
2017-10-25T23:36:24.616Z,11.03
2017-10-25T23:38:52.907Z,7.80
2017-10-25T23:41:20.440Z,8.86
2017-10-25T23:43:47.996Z,8.03
2017-10-25T23:46:16.488Z,8.50
2017-10-25T23:48:44.011Z,8.03
2017-10-25T23:51:11.564Z,13.20
2017-10-25T23:53:39.852Z,12.80
2017-10-25T23:56:07.380Z,8.60
2017-10-25T23:58:34.991Z,8.60
